16:13
Airports
Links
Donate
Help keep this website running!
PayPal
Bitcoin
METAR
KWRL 241553Z AUTO 19005KT 10SM OVC080 M16/M16 A2984 RMK AO2 SLP188 T11561161
Current Weather Conditions at KWRL
VFR 15:53:00 24-02-18
Automated station, no observer
Altimeter:29.84 hg
Temp:-15.6°cf
Dew point:-16.1°cf
Wind:5 knots, 5.8 mph, 3 m/s, from 190°
Visibility:10.0 statute miles
8000(OVC) Overcast
Past METAR reports
VFR 14:53:00 24-02-18
Automated station, no observer
Altimeter:29.84 hg
Temp:-18.9°c -0°f
Dew point:-21.1°c -6°f
Wind:6 knots, 6.9 mph, 3 m/s, from 180°
Visibility:10.0 statute miles
8000(OVC) Overcast
KWRL 241453Z AUTO 18006KT 10SM OVC080 M19/M21 A2984 RMK AO2 SLP194 T11891211 53004
VFR 13:53:00 24-02-18
Automated station, no observer
Altimeter:29.82 hg
Temp:-22.2°c -8°f
Dew point:-23.9°c -9°f
Wind:0 knots, 0 mph, 0 m/s,
Variable direction
Visibility:10.0 statute miles
11000(SCT) Scattered
KWRL 241353Z AUTO 00000KT 10SM SCT110 M22/M24 A2982 RMK AO2 SLP196 T12221239
VFR 12:53:00 24-02-18
Automated station, no observer
Altimeter:29.81 hg
Temp:-20.0°c -4°f
Dew point:-22.2°c -8°f
Wind:5 knots, 5.8 mph, 3 m/s, from 110°
Visibility:10.0 statute miles
8500(OVC) Overcast
KWRL 241253Z AUTO 11005KT 10SM OVC085 M20/M22 A2981 RMK AO2 SLP180 T12001222
VFR 11:53:00 24-02-18
Automated station, no observer
Altimeter:29.82 hg
Temp:-22.2°c -8°f
Dew point:-23.9°c -9°f
Wind:4 knots, 4.6 mph, 2 m/s,
Variable direction
Visibility:10.0 statute miles
(CLR) Clear
KWRL 241153Z AUTO VRB04KT 10SM CLR M22/M24 A2982 RMK AO2 SLP183 T12221239 11183 21244 55007
VFR 10:53:00 24-02-18
Automated station, no observer
Altimeter:29.82 hg
Temp:-23.9°c -9°f
Dew point:-25.6°c -13°f
Wind:0 knots, 0 mph, 0 m/s,
Variable direction
Visibility:10.0 statute miles
(CLR) Clear
KWRL 241053Z AUTO 00000KT 10SM CLR M24/M26 A2982 RMK AO2 SLP186 T12391256
TAF
KWRL 241124Z 2412/2512 15006KT P6SM SCT090
Forecast at KWRL
12:00 24-02-18 to 12:00 25-02-18
Wind:6 Knots from 150°
Visibility:6.21 statute miles
9000SCT Scattered